Colorado Springs, CO (80901)

5:52 PM MDT on September 02, 2015 (GMT -0600)
Old North End | | Change Station
CLOSE
Current Station
Personal Weather Station
Location: Colorado Springs, CO
Elevation: 6086 ft
Nearby Weather Stations

Elev 6086 ft 38.85 °N, 104.82 °W | Updated 44 seconds ago

Partly Cloudy
Partly Cloudy
84.6 °F
Feels Like 82 °F
N
0.0
Wind Variable Wind from WSW
Gusts 0.0 mph

Today
High -- | Low -- °F
--% Chance of Precip.
Yesterday
High -- | Low -- °F
Precip. -- in
6:29 AM 7:28 PM
Waning Gibbous, 76% visible
Pressure 29.81 in
Visibility 10.0 miles
Clouds Scattered Clouds 11000 ft
Scattered Clouds 25000 ft
Heat Index 82 °F
Dew Point 40 °F
Humidity 21%
Rainfall 0.01 in
Snow Depth Not available.
UV 2 out of 12
Pollen 10.50 out of 12
Air Quality Not available.
Flu Activity Not available.
METAR KCOS 022254Z 11006G15KT 10SM SCT110 SCT250 29/02 A3009 RMK AO2 SLP092 T02890017
Pressure 29.81 in
Visibility 10.0 miles
Clouds Scattered Clouds 11000 ft
Scattered Clouds 25000 ft
Heat Index 82 °F
Dew Point 40 °F
Humidity 21%
Rainfall 0.01 in
Snow Depth Not available.
UV 2 out of 12
Pollen 10.50 out of 12
Air Quality Not available.
Flu Activity Not available.
METAR KCOS 022254Z 11006G15KT 10SM SCT110 SCT250 29/02 A3009 RMK AO2 SLP092 T02890017

10-Day Weather Forecast

×

Almanac

Astronomy

Sep. 02, 2015 Rise Set
Actual Time
Civil Twilight
Nautical Twilight
Astronomical Twilight
Moon
Length of Visible Light
Length of Day
Tomorrow will be .
, % of the Moon is Illuminated

Today's Extremes

State Highs State Lows

Community

WunderPhotos

Upload Photos

1,851,841 photos uploaded!

WunderBlogs® & News

Nearby

Air Quality

  Air Quality AQ Index Pollutant
Not available.

Snow Depth

Station Depth Elevation

Earthquake Activity

City Distance Mag. Time & Date
Minimum magnitude displayed is 2.5.

Coastal Water Temperatures

Place Temperature

Stations

Nearby Weather Stations

Station Location Temp. Windchill Dew Point Humidity Wind Precip. Elev Updated Type